Airfield :
LOGIN :

Register | Disclaimer

   EN    FR    IT 

 










Legend :    VFR   Marginal VFR   IFR   Intensive IFR   Very Intensive IFR
Visi :
Ceiling :
>= 8 km
>= 3000ft
5 to 8 km
1000 to 3000 ft
1500m to 5 km
500 to 1000 ft
800 to 1500m
200 to 500 ft
< 800m
< 200 ft
Symbols :   Thunderstorms  Fog  Heavy snow  Heavy precipitations  Wind > 20 kt
SIGMETs :     Misc.  Thunderstorms  Icing  Turbulence  Mountain Waves  Volcanic Ashes






- Airport Elevation : 3368 ft


LSGC - Les Eplatures

CURRENT METAR :
  • 272350Z AUTO 23004KT 9999 BKN017 BKN019 06/05 Q1013 RERA

EXPIRED METARs :
  • 272320Z AUTO 23004KT 190V260 7000 +DZ OVC009 06/05 Q1014
  • 272250Z AUTO 20005KT 9999 -DZ OVC012 06/04 Q1013
  • 272220Z AUTO 21005KT 170V250 9999 OVC015 06/03 Q1013 REDZ
  • 272150Z AUTO 22004KT 9999 DZ BKN017 06/03 Q1013
  • 272120Z AUTO 22005KT 9999 FEW014 BKN017 BKN019 06/01 Q1013

Expired Forecast.



MET'MAP, your aeronautical weather chart ! - Copyright ORBIFLY December 2007 - Disclaimer

ORBIFLY MET'MAP TEAM :

Programming & Development : Alexandra Zaïnal
Concept & original design : Baudouin d'Aumeries
Assistance for programming : Marc-Olivier Méhu
Technical & hardware support : Manuel Goepfert

Contact : metmap@orbifly.com




SOURCES & CREDITS :

   NOAA